createdAt,value
2019-02-22T00:00:01.725Z,0
2019-02-22T00:01:09.767Z,0
2019-02-22T00:02:17.818Z,0
2019-02-22T00:03:25.879Z,0
2019-02-22T00:04:33.950Z,0
2019-02-22T00:05:41.981Z,0
2019-02-22T00:06:50.056Z,0
2019-02-22T00:07:58.116Z,0
2019-02-22T00:09:06.164Z,0
2019-02-22T00:10:14.225Z,0
2019-02-22T00:11:22.261Z,0
2019-02-22T00:12:30.340Z,0
2019-02-22T00:13:38.447Z,0
2019-02-22T00:14:46.452Z,0
2019-02-22T00:15:55.468Z,0
2019-02-22T00:17:02.544Z,0
2019-02-22T00:18:10.619Z,0
2019-02-22T00:19:18.671Z,0
2019-02-22T00:20:26.736Z,0
2019-02-22T00:21:34.796Z,0
2019-02-22T00:22:42.863Z,0
2019-02-22T00:23:50.903Z,0
2019-02-22T00:24:58.966Z,0
2019-02-22T00:26:07.021Z,0
2019-02-22T00:27:15.073Z,0
2019-02-22T00:28:23.161Z,0
2019-02-22T00:29:31.184Z,0
2019-02-22T00:30:39.254Z,0
2019-02-22T00:31:47.302Z,0
2019-02-22T00:32:55.368Z,0
2019-02-22T00:34:03.456Z,0
2019-02-22T00:35:11.468Z,0
2019-02-22T00:36:19.540Z,0
2019-02-22T00:37:27.638Z,0
2019-02-22T00:38:35.648Z,0
2019-02-22T00:39:43.691Z,0
2019-02-22T00:40:51.726Z,0
2019-02-22T00:41:59.821Z,0
2019-02-22T00:43:07.865Z,0
2019-02-22T00:44:15.929Z,0
2019-02-22T00:45:23.989Z,0
2019-02-22T00:46:32.061Z,0
2019-02-22T00:47:40.101Z,0
2019-02-22T00:48:48.165Z,0
2019-02-22T00:49:56.215Z,0
2019-02-22T00:51:04.271Z,0
2019-02-22T00:52:16.395Z,0
2019-02-22T00:53:26.125Z,0
2019-02-22T00:54:30.423Z,0
2019-02-22T00:55:38.488Z,0
2019-02-22T00:56:46.565Z,0
2019-02-22T00:57:54.632Z,0
2019-02-22T00:59:02.671Z,0
2019-02-22T01:00:10.807Z,0
2019-02-22T01:01:18.780Z,0
2019-02-22T01:02:26.869Z,0
2019-02-22T01:03:34.896Z,0
2019-02-22T01:04:42.947Z,0
2019-02-22T01:05:51.031Z,0
2019-02-22T01:06:59.128Z,0
2019-02-22T01:08:07.124Z,0
2019-02-22T01:09:15.254Z,0
2019-02-22T01:10:30.649Z,0
2019-02-22T01:11:31.286Z,0
2019-02-22T01:12:39.375Z,0
2019-02-22T01:13:47.440Z,0
2019-02-22T01:14:55.457Z,0
2019-02-22T01:16:03.540Z,0
2019-02-22T01:17:11.583Z,0
2019-02-22T01:18:19.643Z,0
2019-02-22T01:19:27.694Z,0
2019-02-22T01:20:35.795Z,0
2019-02-22T01:21:43.812Z,0
2019-02-22T01:22:51.854Z,0
2019-02-22T01:23:59.941Z,0
2019-02-22T01:25:07.979Z,0
2019-02-22T01:26:16.046Z,0
2019-02-22T01:27:24.102Z,0
2019-02-22T01:28:32.150Z,0
2019-02-22T01:29:40.200Z,0
2019-02-22T01:30:48.266Z,0
2019-02-22T01:31:56.304Z,0
2019-02-22T01:33:04.394Z,0
2019-02-22T01:34:12.438Z,0
2019-02-22T01:35:20.488Z,0
2019-02-22T01:36:28.544Z,0
2019-02-22T01:37:36.601Z,0
2019-02-22T01:38:44.703Z,0
2019-02-22T01:39:52.714Z,0
2019-02-22T01:41:00.775Z,0
2019-02-22T01:42:08.836Z,0
2019-02-22T01:43:16.881Z,0
2019-02-22T01:44:25.019Z,0
2019-02-22T01:45:32.995Z,0
2019-02-22T01:46:41.088Z,0
2019-02-22T01:47:49.110Z,0
2019-02-22T01:48:57.172Z,0
2019-02-22T01:50:05.221Z,0
2019-02-22T01:51:13.278Z,0
2019-02-22T01:52:21.337Z,0
2019-02-22T01:53:29.391Z,0
2019-02-22T01:54:37.497Z,0
2019-02-22T01:55:45.502Z,0
2019-02-22T01:56:53.562Z,0
2019-02-22T01:58:01.593Z,0
2019-02-22T01:59:09.679Z,0
2019-02-22T02:00:17.721Z,0
2019-02-22T02:01:25.831Z,0
2019-02-22T02:02:33.835Z,0
2019-02-22T02:03:41.865Z,0
2019-02-22T02:04:49.974Z,0
2019-02-22T02:05:58.016Z,0
2019-02-22T02:07:06.103Z,0
2019-02-22T02:08:14.125Z,0
2019-02-22T02:09:22.170Z,0
2019-02-22T02:10:30.233Z,0
2019-02-22T02:11:38.292Z,0
2019-02-22T02:12:46.353Z,0
2019-02-22T02:13:54.409Z,0
2019-02-22T02:15:02.508Z,0
2019-02-22T02:16:10.532Z,0
2019-02-22T02:17:18.575Z,0
2019-02-22T02:18:26.627Z,0
2019-02-22T02:19:34.688Z,0
2019-02-22T02:20:42.794Z,0
2019-02-22T02:21:50.811Z,0
2019-02-22T02:22:58.861Z,0
2019-02-22T02:24:06.902Z,0
2019-02-22T02:25:14.959Z,0
2019-02-22T02:26:23.019Z,0
2019-02-22T02:27:31.126Z,0
2019-02-22T02:28:39.134Z,0
2019-02-22T02:29:47.201Z,0
2019-02-22T02:30:55.249Z,0
2019-02-22T02:32:03.308Z,0
2019-02-22T02:33:11.350Z,0
2019-02-22T02:34:19.416Z,0
2019-02-22T02:35:27.484Z,0
2019-02-22T02:36:35.537Z,0
2019-02-22T02:37:43.588Z,0
2019-02-22T02:38:51.653Z,0
2019-02-22T02:39:59.714Z,0
2019-02-22T02:41:11.117Z,0
2019-02-22T02:42:15.824Z,0
2019-02-22T02:43:23.876Z,0
2019-02-22T02:44:31.926Z,0
2019-02-22T02:45:39.996Z,0
2019-02-22T02:46:48.053Z,0
2019-02-22T02:47:56.093Z,0
2019-02-22T02:49:04.173Z,0
2019-02-22T02:50:12.225Z,0
2019-02-22T02:51:20.283Z,0
2019-02-22T02:52:28.348Z,0
2019-02-22T02:53:36.399Z,0
2019-02-22T02:54:44.448Z,0
2019-02-22T02:55:52.517Z,0
2019-02-22T02:57:00.665Z,0
2019-02-22T02:58:08.638Z,0
2019-02-22T02:59:16.720Z,0
2019-02-22T03:00:24.753Z,0
2019-02-22T03:01:32.808Z,0
2019-02-22T03:02:40.858Z,0
2019-02-22T03:03:48.911Z,0
2019-02-22T03:04:56.966Z,0
2019-02-22T03:06:05.035Z,0
2019-02-22T03:07:13.083Z,0
2019-02-22T03:08:21.146Z,0
2019-02-22T03:09:29.195Z,0
2019-02-22T03:10:37.400Z,0
2019-02-22T03:11:45.352Z,0
2019-02-22T03:12:53.376Z,0
2019-02-22T03:14:01.412Z,0
2019-02-22T03:15:09.488Z,0
2019-02-22T03:16:17.528Z,0
2019-02-22T03:17:25.603Z,0
2019-02-22T03:18:33.650Z,0
2019-02-22T03:19:41.694Z,0
2019-02-22T03:20:49.776Z,0
2019-02-22T03:21:57.819Z,0
2019-02-22T03:23:05.884Z,0
2019-02-22T03:24:13.943Z,0
2019-02-22T03:25:21.983Z,0
2019-02-22T03:26:30.071Z,0
2019-02-22T03:27:38.120Z,0
2019-02-22T03:28:46.176Z,0
2019-02-22T03:29:54.224Z,0
2019-02-22T03:31:02.278Z,0
2019-02-22T03:32:10.423Z,0
2019-02-22T03:33:18.407Z,0
2019-02-22T03:34:26.478Z,0
2019-02-22T03:35:34.518Z,0
2019-02-22T03:36:42.595Z,0
2019-02-22T03:37:50.632Z,0
2019-02-22T03:38:58.685Z,0
2019-02-22T03:40:06.741Z,0
2019-02-22T03:41:14.820Z,0
2019-02-22T03:42:22.873Z,0
2019-02-22T03:43:30.928Z,0
2019-02-22T03:44:38.965Z,0
2019-02-22T03:45:47.052Z,0
2019-02-22T03:46:55.099Z,0
2019-02-22T03:48:03.157Z,0
2019-02-22T03:49:11.203Z,0
2019-02-22T03:50:19.281Z,0
2019-02-22T03:51:27.327Z,0
2019-02-22T03:52:35.382Z,0
2019-02-22T03:53:43.435Z,0
2019-02-22T03:54:51.477Z,0
2019-02-22T03:55:59.570Z,0
2019-02-22T03:57:07.651Z,0
2019-02-22T03:58:15.672Z,0
2019-02-22T03:59:23.730Z,0
2019-02-22T04:00:31.771Z,0
2019-02-22T04:01:39.843Z,0
2019-02-22T04:02:47.901Z,0
2019-02-22T04:03:55.999Z,0
2019-02-22T04:05:04.015Z,0
2019-02-22T04:06:12.051Z,0
2019-02-22T04:07:20.125Z,0
2019-02-22T04:08:28.196Z,0
2019-02-22T04:09:36.240Z,0
2019-02-22T04:10:44.333Z,0
2019-02-22T04:11:52.344Z,0
2019-02-22T04:13:00.416Z,0
2019-02-22T04:14:08.492Z,0
2019-02-22T04:15:16.525Z,0
2019-02-22T04:16:24.586Z,0
2019-02-22T04:17:32.651Z,0
2019-02-22T04:18:40.705Z,0
2019-02-22T04:19:48.777Z,0
2019-02-22T04:20:56.814Z,0
2019-02-22T04:22:04.877Z,0
2019-02-22T04:23:12.975Z,0
2019-02-22T04:24:21.011Z,0
2019-02-22T04:25:29.043Z,0
2019-02-22T04:26:37.106Z,0
2019-02-22T04:27:45.163Z,0
2019-02-22T04:28:53.268Z,0
2019-02-22T04:30:01.276Z,0
2019-02-22T04:31:09.336Z,0
2019-02-22T04:32:17.390Z,0
2019-02-22T04:33:25.466Z,0
2019-02-22T04:34:33.526Z,0
2019-02-22T04:35:41.579Z,0
2019-02-22T04:36:49.628Z,0
2019-02-22T04:37:57.682Z,0
2019-02-22T04:39:05.738Z,0
2019-02-22T04:40:13.806Z,0
2019-02-22T04:41:21.842Z,0
2019-02-22T04:42:29.909Z,0
2019-02-22T04:43:37.960Z,0
2019-02-22T04:44:46.032Z,0
2019-02-22T04:45:54.105Z,0
2019-02-22T04:47:02.125Z,0
2019-02-22T04:48:10.206Z,0
2019-02-22T04:49:18.258Z,0
2019-02-22T04:50:26.315Z,0
2019-02-22T04:51:34.368Z,0
2019-02-22T04:52:42.428Z,0
2019-02-22T04:53:50.482Z,0
2019-02-22T04:54:58.544Z,0
2019-02-22T04:56:06.615Z,0
2019-02-22T04:57:14.663Z,0
2019-02-22T04:58:22.700Z,0
2019-02-22T04:59:30.775Z,0
2019-02-22T05:00:38.824Z,0
2019-02-22T05:01:46.894Z,0
2019-02-22T05:02:54.951Z,0
2019-02-22T05:04:03.006Z,0
2019-02-22T05:05:11.056Z,0
2019-02-22T05:06:19.124Z,0
2019-02-22T05:07:27.181Z,0
2019-02-22T05:08:35.232Z,0
2019-02-22T05:09:43.299Z,0
2019-02-22T05:10:51.326Z,0
2019-02-22T05:12:10.285Z,0
2019-02-22T05:13:07.459Z,0
2019-02-22T05:14:15.506Z,0
2019-02-22T05:15:23.559Z,0
2019-02-22T05:16:31.669Z,0
2019-02-22T05:17:39.684Z,0
2019-02-22T05:18:47.776Z,0
2019-02-22T05:19:55.837Z,0
2019-02-22T05:21:03.854Z,0
2019-02-22T05:22:11.887Z,0
2019-02-22T05:23:19.986Z,0
2019-02-22T05:24:28.019Z,0
2019-02-22T05:25:36.089Z,0
2019-02-22T05:26:44.129Z,0
2019-02-22T05:27:52.175Z,0
2019-02-22T05:29:00.231Z,0
2019-02-22T05:30:08.292Z,0
2019-02-22T05:31:16.368Z,0
2019-02-22T05:32:24.411Z,0
2019-02-22T05:33:32.471Z,0
2019-02-22T05:34:40.532Z,0
2019-02-22T05:35:48.640Z,0
2019-02-22T05:36:56.648Z,0
2019-02-22T05:38:04.694Z,0
2019-02-22T05:39:18.800Z,0
2019-02-22T05:40:20.813Z,0
2019-02-22T05:41:28.889Z,0
2019-02-22T05:42:36.928Z,0
2019-02-22T05:43:45.103Z,0
2019-02-22T05:44:53.034Z,0
2019-02-22T05:46:01.090Z,0
2019-02-22T05:47:09.154Z,0
2019-02-22T05:48:17.227Z,0
2019-02-22T05:49:25.295Z,0
2019-02-22T05:50:33.329Z,0
2019-02-22T05:51:41.360Z,4
2019-02-22T05:52:49.393Z,4
2019-02-22T05:53:58.120Z,0
2019-02-22T05:55:05.562Z,4
2019-02-22T05:56:13.620Z,4
2019-02-22T05:57:21.628Z,4
2019-02-22T05:58:29.761Z,4
2019-02-22T05:59:37.758Z,4
2019-02-22T06:00:45.834Z,8
2019-02-22T06:01:53.905Z,12
2019-02-22T06:03:01.931Z,16
2019-02-22T06:04:10.037Z,16
2019-02-22T06:05:18.071Z,20
2019-02-22T06:06:26.111Z,28
2019-02-22T06:07:34.472Z,36
2019-02-22T06:08:42.253Z,48
2019-02-22T06:09:50.303Z,56
2019-02-22T06:10:58.356Z,64
2019-02-22T06:12:06.407Z,72
2019-02-22T06:13:14.455Z,84
2019-02-22T06:14:22.538Z,88
2019-02-22T06:15:31.575Z,100
2019-02-22T06:16:38.621Z,108
2019-02-22T06:17:46.736Z,128
2019-02-22T06:18:55.168Z,148
2019-02-22T06:20:02.870Z,168
2019-02-22T06:21:10.849Z,188
2019-02-22T06:22:28.929Z,208
2019-02-22T06:23:26.984Z,228
2019-02-22T06:24:35.070Z,248
2019-02-22T06:25:43.083Z,260
2019-02-22T06:26:51.147Z,272
2019-02-22T06:27:59.191Z,288
2019-02-22T06:29:07.241Z,308
2019-02-22T06:30:15.319Z,324
2019-02-22T06:31:23.388Z,344
2019-02-22T06:32:31.427Z,352
2019-02-22T06:33:39.489Z,348
2019-02-22T06:34:47.529Z,336
2019-02-22T06:35:55.603Z,328
2019-02-22T06:37:03.646Z,316
2019-02-22T06:38:11.695Z,316
2019-02-22T06:39:19.762Z,324
2019-02-22T06:40:27.834Z,336
2019-02-22T06:41:35.885Z,352
2019-02-22T06:42:45.999Z,388
2019-02-22T06:43:52.026Z,424
2019-02-22T06:45:00.173Z,448
2019-02-22T06:46:08.112Z,484
2019-02-22T06:47:16.181Z,492
2019-02-22T06:48:24.229Z,500
2019-02-22T06:49:32.288Z,512
2019-02-22T06:50:40.326Z,528
2019-02-22T06:51:48.400Z,536
2019-02-22T06:52:56.443Z,512
2019-02-22T06:54:04.511Z,488
2019-02-22T06:55:12.540Z,448
2019-02-22T06:56:20.635Z,436
2019-02-22T06:57:28.677Z,520
2019-02-22T06:58:36.738Z,636
2019-02-22T06:59:44.795Z,708
2019-02-22T07:00:52.844Z,784
2019-02-22T07:02:00.912Z,820
2019-02-22T07:03:08.963Z,772
2019-02-22T07:04:17.033Z,824
2019-02-22T07:05:25.092Z,880
2019-02-22T07:06:33.133Z,876
2019-02-22T07:07:41.241Z,832
2019-02-22T07:08:49.240Z,800
2019-02-22T07:09:57.325Z,792
2019-02-22T07:11:05.392Z,892
2019-02-22T07:12:13.421Z,1000
2019-02-22T07:13:21.463Z,1044
2019-02-22T07:14:29.537Z,1116
2019-02-22T07:15:37.600Z,1052
2019-02-22T07:16:45.639Z,1028
2019-02-22T07:17:53.710Z,996
2019-02-22T07:19:01.743Z,976
2019-02-22T07:20:09.827Z,968
2019-02-22T07:21:17.889Z,1116
2019-02-22T07:22:25.939Z,1304
2019-02-22T07:23:34.001Z,1440
2019-02-22T07:24:42.051Z,1300
2019-02-22T07:25:50.147Z,1064
2019-02-22T07:26:58.213Z,980
2019-02-22T07:28:06.257Z,868
2019-02-22T07:29:14.307Z,788
2019-02-22T07:30:22.349Z,796
2019-02-22T07:31:30.413Z,816
2019-02-22T07:32:38.471Z,884
2019-02-22T07:33:46.521Z,1012
2019-02-22T07:34:54.585Z,1108
2019-02-22T07:36:02.641Z,1220
2019-02-22T07:37:10.700Z,1292
2019-02-22T07:38:18.769Z,1296
2019-02-22T07:39:27.602Z,1288
2019-02-22T07:40:34.857Z,1252
2019-02-22T07:41:42.915Z,1172
2019-02-22T07:42:50.987Z,1244
2019-02-22T07:43:59.063Z,1368
2019-02-22T07:45:07.108Z,1460
2019-02-22T07:46:15.167Z,1568
2019-02-22T07:47:23.214Z,1624
2019-02-22T07:48:31.282Z,1400
2019-02-22T07:49:39.332Z,1220
2019-02-22T07:50:56.774Z,1208
2019-02-22T07:51:55.455Z,1360
2019-02-22T07:53:03.557Z,1460
2019-02-22T07:54:11.624Z,1340
2019-02-22T07:55:19.623Z,1416
2019-02-22T07:56:27.675Z,1612
2019-02-22T07:57:35.733Z,1672
2019-02-22T07:58:43.802Z,1820
2019-02-22T07:59:51.838Z,2092
2019-02-22T08:00:59.956Z,2268
2019-02-22T08:02:07.967Z,2280
2019-02-22T08:03:16.040Z,2056
2019-02-22T08:04:24.115Z,1944
2019-02-22T08:05:32.138Z,1712
2019-02-22T08:06:42.395Z,1300
2019-02-22T08:07:48.267Z,1192
2019-02-22T08:08:56.319Z,1256
2019-02-22T08:10:04.382Z,1304
2019-02-22T08:11:12.440Z,1280
2019-02-22T08:12:20.496Z,1124
2019-02-22T08:13:28.545Z,1144
2019-02-22T08:14:36.610Z,1356
2019-02-22T08:15:44.683Z,1540
2019-02-22T08:16:52.737Z,1676
2019-02-22T08:18:00.776Z,1904
2019-02-22T08:19:11.118Z,2236
2019-02-22T08:20:16.907Z,2360
2019-02-22T08:21:24.956Z,2480
2019-02-22T08:22:33.040Z,2148
2019-02-22T08:23:41.080Z,1772
2019-02-22T08:24:49.131Z,1872
2019-02-22T08:25:57.193Z,2232
2019-02-22T08:27:05.255Z,2764
2019-02-22T08:28:13.324Z,3000
2019-02-22T08:29:21.401Z,2732
2019-02-22T08:30:29.438Z,2644
2019-02-22T08:31:37.502Z,3492
2019-02-22T08:32:45.544Z,3928
2019-02-22T08:33:53.619Z,3732
2019-02-22T08:35:01.639Z,3380
2019-02-22T08:36:09.719Z,3292
2019-02-22T08:37:17.768Z,3128
2019-02-22T08:38:25.846Z,2968
2019-02-22T08:39:33.921Z,2864
2019-02-22T08:40:41.939Z,2748
2019-02-22T08:41:50.067Z,3040
2019-02-22T08:42:58.092Z,3648
2019-02-22T08:44:06.161Z,4448
2019-02-22T08:45:14.212Z,4588
2019-02-22T08:46:22.287Z,3784
2019-02-22T08:47:30.465Z,4224
2019-02-22T08:48:38.409Z,5020
2019-02-22T08:49:46.444Z,5764
2019-02-22T08:50:54.555Z,6804
2019-02-22T08:52:02.547Z,6592
2019-02-22T08:53:10.606Z,6512
2019-02-22T08:54:18.675Z,7732
2019-02-22T08:55:26.737Z,7596
2019-02-22T08:56:34.809Z,8340
2019-02-22T08:57:42.865Z,7748
2019-02-22T08:58:50.916Z,7420
2019-02-22T08:59:58.987Z,6684
2019-02-22T09:01:07.039Z,6344
2019-02-22T09:02:15.121Z,6868
2019-02-22T09:03:23.139Z,7848
2019-02-22T09:04:31.209Z,7828
2019-02-22T09:05:40.091Z,7584
2019-02-22T09:06:47.363Z,8860
2019-02-22T09:07:55.403Z,8852
2019-02-22T09:09:03.439Z,7972
2019-02-22T09:10:11.510Z,8032
2019-02-22T09:11:19.585Z,8140
2019-02-22T09:12:27.630Z,7928
2019-02-22T09:13:43.329Z,7840
2019-02-22T09:14:43.761Z,7904
2019-02-22T09:15:51.797Z,7688
2019-02-22T09:16:59.866Z,7488
2019-02-22T09:18:07.943Z,7564
2019-02-22T09:19:16.000Z,7160
2019-02-22T09:20:24.048Z,6156
2019-02-22T09:21:32.104Z,6464
2019-02-22T09:22:40.201Z,6932
2019-02-22T09:23:48.284Z,6740
2019-02-22T09:24:56.313Z,6316
2019-02-22T09:26:04.367Z,6892
2019-02-22T09:27:12.439Z,7008
2019-02-22T09:28:20.486Z,7228
2019-02-22T09:29:28.545Z,6944
2019-02-22T09:30:36.610Z,6564
2019-02-22T09:31:44.668Z,6332
2019-02-22T09:32:52.733Z,6284
2019-02-22T09:34:00.791Z,6324
2019-02-22T09:35:08.875Z,6488
2019-02-22T09:36:16.912Z,6796
2019-02-22T09:37:24.975Z,6972
2019-02-22T09:38:33.030Z,6780
2019-02-22T09:39:41.093Z,6860
2019-02-22T09:40:49.165Z,7316
2019-02-22T09:41:57.222Z,7264
2019-02-22T09:43:05.320Z,7056
2019-02-22T09:44:13.359Z,6564
2019-02-22T09:45:21.400Z,6072
2019-02-22T09:46:29.482Z,6012
2019-02-22T09:47:37.626Z,6176
2019-02-22T09:48:45.598Z,6360
2019-02-22T09:49:53.646Z,6340
2019-02-22T09:51:01.685Z,6180
2019-02-22T09:52:09.780Z,6140
2019-02-22T09:53:17.840Z,6028
2019-02-22T09:54:25.890Z,6012
2019-02-22T09:55:33.939Z,6064
2019-02-22T09:56:42.034Z,5716
2019-02-22T09:57:50.076Z,5376
2019-02-22T09:58:58.127Z,5364
2019-02-22T10:00:06.202Z,5156
2019-02-22T10:01:14.254Z,4892
2019-02-22T10:02:22.314Z,4744
2019-02-22T10:03:30.386Z,4704
2019-02-22T10:04:38.442Z,4728
2019-02-22T10:05:46.505Z,4888
2019-02-22T10:06:54.572Z,5316
2019-02-22T10:08:02.648Z,6036
2019-02-22T10:09:10.691Z,6580
2019-02-22T10:10:18.752Z,7092
2019-02-22T10:11:26.804Z,7520
2019-02-22T10:12:34.855Z,7888
2019-02-22T10:13:42.938Z,7984
2019-02-22T10:14:50.989Z,8024
2019-02-22T10:15:59.039Z,8148
2019-02-22T10:17:07.107Z,7944
2019-02-22T10:18:15.194Z,7680
2019-02-22T10:19:23.232Z,7500
2019-02-22T10:20:31.297Z,7248
2019-02-22T10:21:39.350Z,7300
2019-02-22T10:22:47.426Z,7384
2019-02-22T10:23:55.504Z,7328
2019-02-22T10:25:03.540Z,7400
2019-02-22T10:26:11.608Z,7544
2019-02-22T10:27:19.689Z,8068
2019-02-22T10:28:27.803Z,8584
2019-02-22T10:29:35.869Z,8948
2019-02-22T10:30:43.837Z,9396
2019-02-22T10:31:51.882Z,9460
2019-02-22T10:32:59.970Z,9220
2019-02-22T10:34:08.038Z,9112
2019-02-22T10:35:16.087Z,9048
2019-02-22T10:36:24.155Z,8924
2019-02-22T10:37:32.198Z,8620
2019-02-22T10:38:40.290Z,8820
2019-02-22T10:39:48.341Z,8932
2019-02-22T10:40:56.392Z,9568
2019-02-22T10:42:04.505Z,9808
2019-02-22T10:43:12.539Z,9856
2019-02-22T10:44:20.599Z,9788
2019-02-22T10:45:28.637Z,9864
2019-02-22T10:46:36.700Z,9956
2019-02-22T10:47:44.840Z,9924
2019-02-22T10:48:52.873Z,9596
2019-02-22T10:50:00.934Z,9388
2019-02-22T10:51:08.971Z,8980
2019-02-22T10:52:17.038Z,8660
2019-02-22T10:53:25.078Z,8660
2019-02-22T10:54:33.141Z,8780
2019-02-22T10:55:41.216Z,9424
2019-02-22T10:56:49.264Z,10064
2019-02-22T10:57:57.330Z,10696
2019-02-22T10:59:05.392Z,11516
2019-02-22T11:00:13.439Z,11768
2019-02-22T11:01:21.512Z,12176
2019-02-22T11:02:31.291Z,12160
2019-02-22T11:03:37.647Z,12304
2019-02-22T11:04:45.746Z,11264
2019-02-22T11:05:54.541Z,10816
2019-02-22T11:07:01.810Z,10828
2019-02-22T11:08:09.916Z,10856
2019-02-22T11:09:17.943Z,10196
2019-02-22T11:10:26.028Z,9856
2019-02-22T11:11:34.097Z,8884
2019-02-22T11:12:42.132Z,8792
2019-02-22T11:13:50.220Z,7976
2019-02-22T11:14:58.270Z,7268
2019-02-22T11:16:06.339Z,6896
2019-02-22T11:17:14.393Z,6384
2019-02-22T11:18:22.443Z,6092
2019-02-22T11:19:30.569Z,6492
2019-02-22T11:20:38.593Z,7064
2019-02-22T11:21:46.699Z,6732
2019-02-22T11:22:54.729Z,7552
2019-02-22T11:24:02.781Z,7832
2019-02-22T11:25:10.823Z,8052
2019-02-22T11:26:18.910Z,8620
2019-02-22T11:27:26.958Z,8460
2019-02-22T11:28:35.043Z,8424
2019-02-22T11:29:43.110Z,8700
2019-02-22T11:30:51.151Z,8380
2019-02-22T11:31:59.222Z,8304
2019-02-22T11:33:07.276Z,9272
2019-02-22T11:34:15.335Z,9752
2019-02-22T11:35:23.630Z,9228
2019-02-22T11:36:31.454Z,8488
2019-02-22T11:37:39.570Z,8552
2019-02-22T11:38:47.642Z,9016
2019-02-22T11:39:55.690Z,9256
2019-02-22T11:41:03.722Z,9480
2019-02-22T11:42:11.768Z,10048
2019-02-22T11:43:19.836Z,10404
2019-02-22T11:44:27.888Z,10700
2019-02-22T11:45:35.967Z,10680
2019-02-22T11:46:44.040Z,10372
2019-02-22T11:47:52.075Z,10288
2019-02-22T11:49:00.162Z,10000
2019-02-22T11:50:08.242Z,9324
2019-02-22T11:51:16.303Z,8740
2019-02-22T11:52:24.368Z,8244
2019-02-22T11:53:32.409Z,9328
2019-02-22T11:54:40.481Z,10388
2019-02-22T11:55:48.531Z,11416
2019-02-22T11:56:56.617Z,11856
2019-02-22T11:58:04.667Z,11372
2019-02-22T11:59:12.729Z,10000
2019-02-22T12:00:20.788Z,10080
2019-02-22T12:01:28.865Z,10104
2019-02-22T12:02:36.933Z,9776
2019-02-22T12:03:44.978Z,9172
2019-02-22T12:04:53.039Z,8672
2019-02-22T12:06:01.129Z,8980
2019-02-22T12:07:09.183Z,9248
2019-02-22T12:08:17.294Z,9340
2019-02-22T12:09:25.353Z,9392
2019-02-22T12:10:33.405Z,9404
2019-02-22T12:11:41.430Z,9340
2019-02-22T12:12:49.502Z,9440
2019-02-22T12:13:57.566Z,9596
2019-02-22T12:15:05.645Z,9584
2019-02-22T12:16:13.674Z,9132
2019-02-22T12:17:21.735Z,8956
2019-02-22T12:18:29.812Z,9296
2019-02-22T12:19:37.873Z,9412
2019-02-22T12:20:45.941Z,9596
2019-02-22T12:21:54.006Z,8612
2019-02-22T12:23:02.050Z,8488
2019-02-22T12:24:10.135Z,7868
2019-02-22T12:25:18.196Z,7588
2019-02-22T12:26:26.249Z,7284
2019-02-22T12:27:34.326Z,7504
2019-02-22T12:28:42.427Z,7524
2019-02-22T12:29:50.444Z,6956
2019-02-22T12:30:58.526Z,6256
2019-02-22T12:32:06.612Z,5392
2019-02-22T12:33:14.638Z,4760
2019-02-22T12:34:22.691Z,4464
2019-02-22T12:35:30.771Z,4728
2019-02-22T12:36:38.819Z,5492
2019-02-22T12:37:46.906Z,6068
2019-02-22T12:38:54.944Z,6924
2019-02-22T12:40:03.022Z,7588
2019-02-22T12:41:11.075Z,8060
2019-02-22T12:42:19.152Z,8352
2019-02-22T12:43:27.213Z,8888
2019-02-22T12:44:35.272Z,9748
2019-02-22T12:45:43.335Z,10404
2019-02-22T12:46:51.366Z,10952
2019-02-22T12:47:59.458Z,11060
2019-02-22T12:49:07.528Z,11204
2019-02-22T12:50:15.563Z,11020
2019-02-22T12:51:23.627Z,10472
2019-02-22T12:52:31.693Z,10724
2019-02-22T12:53:39.776Z,10752
2019-02-22T12:54:47.837Z,10532
2019-02-22T12:55:55.885Z,10192
2019-02-22T12:57:03.993Z,9440
2019-02-22T12:58:12.051Z,9236
2019-02-22T12:59:20.096Z,8952
2019-02-22T13:00:28.145Z,9148
2019-02-22T13:01:36.235Z,8852
2019-02-22T13:02:44.275Z,8292
2019-02-22T13:03:52.322Z,7896
2019-02-22T13:05:00.428Z,7708
2019-02-22T13:06:08.461Z,7892
2019-02-22T13:07:16.528Z,7936
2019-02-22T13:08:24.599Z,7768
2019-02-22T13:09:36.107Z,8220
2019-02-22T13:10:40.727Z,7500
2019-02-22T13:11:48.808Z,7976
2019-02-22T13:12:56.901Z,8476
2019-02-22T13:14:04.941Z,8584
2019-02-22T13:15:14.288Z,8592
2019-02-22T13:16:21.034Z,8248
2019-02-22T13:17:30.907Z,8412
2019-02-22T13:18:37.163Z,8560
2019-02-22T13:19:45.231Z,8092
2019-02-22T13:20:53.376Z,7468
2019-02-22T13:22:01.346Z,6896
2019-02-22T13:23:09.418Z,6736
2019-02-22T13:24:17.473Z,6800
2019-02-22T13:25:25.536Z,6704
2019-02-22T13:26:33.616Z,6592
2019-02-22T13:27:41.638Z,6384
2019-02-22T13:28:49.743Z,6444
2019-02-22T13:29:57.788Z,6628
2019-02-22T13:31:05.842Z,6836
2019-02-22T13:32:13.933Z,7032
2019-02-22T13:33:21.965Z,7148
2019-02-22T13:34:30.044Z,7152
2019-02-22T13:35:38.116Z,7180
2019-02-22T13:36:46.162Z,7184
2019-02-22T13:37:54.222Z,7240
2019-02-22T13:39:02.292Z,7256
2019-02-22T13:40:10.359Z,7276
2019-02-22T13:41:18.467Z,7240
2019-02-22T13:42:26.478Z,6948
2019-02-22T13:43:34.530Z,6660
2019-02-22T13:44:42.628Z,6388
2019-02-22T13:45:50.725Z,5928
2019-02-22T13:46:58.771Z,5292
2019-02-22T13:48:06.786Z,4800
2019-02-22T13:49:14.846Z,4424
2019-02-22T13:50:22.920Z,3952
2019-02-22T13:51:31.004Z,3456
2019-02-22T13:52:39.037Z,3168
2019-02-22T13:53:47.126Z,3048
2019-02-22T13:54:55.170Z,2984
2019-02-22T13:56:03.233Z,2948
2019-02-22T13:57:11.281Z,2940
2019-02-22T13:58:19.352Z,2960
2019-02-22T13:59:27.413Z,3024
2019-02-22T14:00:35.472Z,3096
2019-02-22T14:01:43.529Z,3372
2019-02-22T14:02:51.617Z,3528
2019-02-22T14:03:59.686Z,3640
2019-02-22T14:05:08.491Z,3760
2019-02-22T14:06:15.776Z,3988
2019-02-22T14:07:23.827Z,4164
2019-02-22T14:08:31.912Z,4232
2019-02-22T14:09:39.952Z,4352
2019-02-22T14:10:48.060Z,4572
2019-02-22T14:11:56.097Z,4860
2019-02-22T14:13:04.143Z,4892
2019-02-22T14:14:12.198Z,4700
2019-02-22T14:15:20.265Z,4412
2019-02-22T14:16:28.315Z,4144
2019-02-22T14:17:36.375Z,3928
2019-02-22T14:18:44.446Z,3780
2019-02-22T14:19:52.512Z,3696
2019-02-22T14:21:00.579Z,3612
2019-02-22T14:22:08.668Z,3576
2019-02-22T14:23:16.696Z,3256
2019-02-22T14:24:24.740Z,3408
2019-02-22T14:25:32.811Z,3468
2019-02-22T14:26:40.873Z,3440
2019-02-22T14:27:48.937Z,3408
2019-02-22T14:28:57.005Z,3360
2019-02-22T14:30:05.050Z,3320
2019-02-22T14:31:13.117Z,3264
2019-02-22T14:32:21.178Z,3224
2019-02-22T14:33:29.242Z,3168
2019-02-22T14:34:37.310Z,3116
2019-02-22T14:35:45.382Z,3036
2019-02-22T14:36:53.567Z,2932
2019-02-22T14:38:01.485Z,2772
2019-02-22T14:39:09.535Z,2664
2019-02-22T14:40:17.601Z,2632
2019-02-22T14:41:27.905Z,2700
2019-02-22T14:42:33.714Z,2956
2019-02-22T14:43:41.770Z,3080
2019-02-22T14:44:49.854Z,3036
2019-02-22T14:45:57.902Z,3072
2019-02-22T14:47:05.966Z,3048
2019-02-22T14:48:14.091Z,3072
2019-02-22T14:49:22.062Z,3068
2019-02-22T14:50:30.155Z,3052
2019-02-22T14:51:38.199Z,2964
2019-02-22T14:52:46.300Z,2892
2019-02-22T14:53:54.335Z,2820
2019-02-22T14:55:02.386Z,2740
2019-02-22T14:56:10.459Z,2660
2019-02-22T14:57:18.515Z,2520
2019-02-22T14:58:26.554Z,2536
2019-02-22T14:59:34.616Z,2616
2019-02-22T15:00:42.694Z,2624
2019-02-22T15:01:50.736Z,2648
2019-02-22T15:02:58.805Z,2652
2019-02-22T15:04:06.885Z,2628
2019-02-22T15:05:14.936Z,2628
2019-02-22T15:06:22.980Z,2648
2019-02-22T15:07:31.042Z,2568
2019-02-22T15:08:39.104Z,2436
2019-02-22T15:09:47.174Z,2416
2019-02-22T15:10:55.238Z,2412
2019-02-22T15:12:03.286Z,2400
2019-02-22T15:13:12.475Z,2392
2019-02-22T15:14:19.414Z,2380
2019-02-22T15:15:27.469Z,2364
2019-02-22T15:16:37.473Z,2380
2019-02-22T15:17:43.586Z,2452
2019-02-22T15:18:51.635Z,2548
2019-02-22T15:19:59.720Z,2632
2019-02-22T15:21:07.768Z,2672
2019-02-22T15:22:15.816Z,2744
2019-02-22T15:23:23.895Z,2916
2019-02-22T15:24:33.025Z,3020
2019-02-22T15:25:40.011Z,3084
2019-02-22T15:26:48.052Z,3208
2019-02-22T15:27:56.117Z,3396
2019-02-22T15:29:04.197Z,3548
2019-02-22T15:30:12.332Z,3920
2019-02-22T15:31:20.314Z,4308
2019-02-22T15:32:28.359Z,4404
2019-02-22T15:33:36.435Z,4268
2019-02-22T15:34:44.493Z,3724
2019-02-22T15:35:52.555Z,2948
2019-02-22T15:37:00.653Z,1984
2019-02-22T15:38:10.062Z,1488
2019-02-22T15:39:16.750Z,1280
2019-02-22T15:40:24.802Z,1124
2019-02-22T15:41:32.843Z,980
2019-02-22T15:42:40.926Z,928
2019-02-22T15:43:48.953Z,944